Startpagina
METAR-TAF:

METAR-TAF

Vliegvelden :

Kaapstad, Zuid-Afrika

Cape Town International Airport

breedte: 33-59S, lengte: 018-36E, hoogte: 42 m

Actueel weer

Dit bericht is 1 uur en het 11 minuten geleden gemaakt, om 03:00 UTC
Wind 10 kt uit het zuidzuidoosten
Temperatuur 15°C
Vochtigheid 59%
Druk 1021 hPa
Zicht 10 km of meer
geen wolken onder 1500 m en geen cumulonimbus

METAR: FACT 240300Z 15010KT CAVOK 15/07 Q1021 NOSIG

Tijdstip: 06:11 (04:11 UTC)

Verwachting

Dit bericht is 6 uur en het 11 minuten geleden gemaakt, om 22:00 UTC
Verwachting geldig van 24 om 00 UTC tot 25 om 06 UTC
Wind 10 kt uit het zuidzuidoosten
Zicht 10 km of meer
Weinig wolken op 4000 ft
Wijzigt naar
van 24 om 10 UTC tot 24 om 12 UTC
Wind 20 kt uit het zuiden
Wijzigt naar
van 24 om 22 UTC tot 24 om 24 UTC
Wind 10 kt uit het zuidzuidoosten

TAF: FACT 232200Z 2400/2506 16010KT 9999 FEW040 BECMG 2410/2412 18020KT BECMG 2422/2424 16010KT TX23/2412ZTN13/2405Z

Waarnemingen en weersverwachtingen van meer dan 4000 vliegvelden (METAR en TAF).

De beschikbare stations zijn de gele en rode punten op de kaart.

Ga met uw muis naar het station om de naam te zien.

Klik dan om waarnemingen en weersverwachtingen te zien.

kaart wijzigen: klik op de groene knoppen met een zwart kruis om in te zoomen, op de groene knop met een streepje om uit te zoomen of op de groene pijlen voor aangrenzende kaarten.


METAR-TAF: